createdAt,value
2019-05-28T00:01:23.169Z,79.66
2019-05-28T00:03:55.991Z,74.19
2019-05-28T00:06:28.339Z,73.01
2019-05-28T00:09:00.721Z,72.06
2019-05-28T00:11:33.347Z,70.06
2019-05-28T00:14:05.864Z,69.59
2019-05-28T00:16:38.298Z,69.04
2019-05-28T00:19:10.571Z,69.39
2019-05-28T00:21:42.962Z,69.47
2019-05-28T00:24:16.441Z,69.71
2019-05-28T00:26:49.249Z,69.93
2019-05-28T00:29:21.809Z,69.92
2019-05-28T00:31:54.544Z,69.59
2019-05-28T00:34:27.587Z,69.57
2019-05-28T00:37:00.258Z,69.58
2019-05-28T00:39:33.414Z,69.68
2019-05-28T00:42:06.129Z,69.92
2019-05-28T00:44:38.503Z,70.18
2019-05-28T00:47:12.415Z,70.42
2019-05-28T00:49:44.651Z,70.57
2019-05-28T00:52:17.170Z,71.20
2019-05-28T00:54:49.781Z,71.43
2019-05-28T00:57:23.153Z,71.50
2019-05-28T00:59:56.255Z,71.63
2019-05-28T01:02:28.603Z,71.83
2019-05-28T01:05:01.462Z,72.00
2019-05-28T01:07:34.133Z,71.81
2019-05-28T01:10:09.434Z,71.91
2019-05-28T01:12:41.680Z,72.08
2019-05-28T01:15:14.687Z,72.57
2019-05-28T01:17:47.245Z,72.37
2019-05-28T01:20:19.826Z,72.53
2019-05-28T01:22:52.402Z,72.61
2019-05-28T01:25:24.950Z,72.54
2019-05-28T01:27:57.458Z,72.11
2019-05-28T01:30:29.776Z,72.42
2019-05-28T01:33:02.719Z,72.74
2019-05-28T01:35:35.097Z,73.04
2019-05-28T01:38:08.602Z,72.98
2019-05-28T01:40:41.258Z,73.10
2019-05-28T01:43:13.752Z,73.19
2019-05-28T01:45:46.159Z,73.50
2019-05-28T01:48:18.743Z,73.98
2019-05-28T01:50:51.514Z,74.14
2019-05-28T01:53:23.822Z,74.21
2019-05-28T01:55:56.379Z,74.88
2019-05-28T01:58:29.023Z,75.32
2019-05-28T02:01:12.219Z,75.50
2019-05-28T02:03:35.808Z,75.60
2019-05-28T02:06:08.522Z,75.50
2019-05-28T02:08:40.805Z,75.87
2019-05-28T02:11:13.025Z,75.98
2019-05-28T02:13:45.769Z,76.11
2019-05-28T02:16:18.112Z,76.54
2019-05-28T02:18:51.929Z,76.20
2019-05-28T02:21:24.392Z,75.56
2019-05-28T02:23:57.980Z,74.41
2019-05-28T02:26:31.078Z,73.84
2019-05-28T02:29:04.119Z,73.43
2019-05-28T02:31:36.679Z,73.91
2019-05-28T02:34:09.569Z,74.22
2019-05-28T02:36:42.096Z,73.69
2019-05-28T02:39:15.084Z,74.56
2019-05-28T02:41:47.990Z,74.54
2019-05-28T02:44:20.350Z,74.00
2019-05-28T02:46:53.021Z,73.76
2019-05-28T02:49:26.291Z,73.46
2019-05-28T02:51:58.965Z,73.30
2019-05-28T02:54:31.686Z,73.18
2019-05-28T02:57:14.395Z,73.49
2019-05-28T02:59:49.843Z,72.79
2019-05-28T03:02:24.949Z,73.10
2019-05-28T03:05:01.305Z,73.54
2019-05-28T03:07:34.908Z,72.79
2019-05-28T03:10:08.307Z,73.46
2019-05-28T03:12:40.839Z,73.20
2019-05-28T03:15:13.923Z,72.85
2019-05-28T03:17:48.065Z,72.89
2019-05-28T03:20:21.741Z,72.26
2019-05-28T03:22:55.356Z,71.46
2019-05-28T03:25:28.203Z,71.01
2019-05-28T03:28:00.616Z,69.69
2019-05-28T03:30:33.283Z,69.66
2019-05-28T03:33:05.765Z,69.02
2019-05-28T03:35:40.567Z,68.32
2019-05-28T03:38:14.555Z,68.25
2019-05-28T03:40:47.904Z,67.65
2019-05-28T03:43:20.171Z,67.63
2019-05-28T03:45:52.833Z,67.23
2019-05-28T03:48:25.113Z,66.68
2019-05-28T03:50:58.824Z,65.91
2019-05-28T03:53:31.161Z,66.49
2019-05-28T03:56:03.611Z,65.71
2019-05-28T03:58:36.058Z,65.22
2019-05-28T04:01:08.765Z,64.53
2019-05-28T04:03:41.167Z,64.66
2019-05-28T04:06:15.080Z,64.07
2019-05-28T04:08:47.488Z,63.44
2019-05-28T04:11:19.964Z,62.84
2019-05-28T04:13:52.190Z,62.26
2019-05-28T04:16:24.716Z,62.46
2019-05-28T04:18:57.148Z,61.74
2019-05-28T04:21:31.415Z,61.46
2019-05-28T04:24:03.176Z,61.07
2019-05-28T04:26:36.800Z,60.03
2019-05-28T04:29:09.966Z,59.49
2019-05-28T04:31:42.744Z,59.54
2019-05-28T04:34:15.120Z,59.14
2019-05-28T04:36:47.638Z,58.07
2019-05-28T04:39:20.378Z,57.71
2019-05-28T04:41:52.770Z,58.96
2019-05-28T04:44:25.308Z,60.84
2019-05-28T04:46:57.786Z,62.39
2019-05-28T04:49:31.372Z,63.99
2019-05-28T04:52:05.496Z,64.22
2019-05-28T04:54:39.127Z,63.70
2019-05-28T04:57:11.484Z,63.86
2019-05-28T04:59:43.874Z,62.94
2019-05-28T05:02:16.183Z,62.53
2019-05-28T05:04:48.704Z,62.49
2019-05-28T05:07:22.882Z,62.33
2019-05-28T05:09:56.183Z,62.09
2019-05-28T05:12:30.763Z,62.29
2019-05-28T05:15:04.396Z,61.27
2019-05-28T05:17:37.045Z,58.70
2019-05-28T05:20:11.895Z,58.24
2019-05-28T05:22:44.615Z,58.46
2019-05-28T05:25:17.444Z,58.75
2019-05-28T05:27:50.314Z,58.36
2019-05-28T05:30:22.738Z,57.39
2019-05-28T05:32:55.540Z,52.96
2019-05-28T05:35:29.269Z,51.94
2019-05-28T05:38:01.925Z,52.71
2019-05-28T05:40:34.476Z,52.25
2019-05-28T05:43:06.880Z,50.93
2019-05-28T05:45:39.403Z,49.56
2019-05-28T05:48:11.923Z,45.75
2019-05-28T05:50:45.376Z,42.71
2019-05-28T05:53:18.673Z,42.41
2019-05-28T05:55:51.069Z,41.18
2019-05-28T05:58:23.414Z,42.50
2019-05-28T06:00:55.767Z,45.21
2019-05-28T06:03:40.410Z,42.33
2019-05-28T06:06:05.568Z,43.06
2019-05-28T06:08:38.139Z,42.25
2019-05-28T06:11:10.677Z,42.95
2019-05-28T06:13:43.506Z,41.86
2019-05-28T06:16:16.116Z,44.16
2019-05-28T06:18:48.997Z,41.97
2019-05-28T06:21:21.511Z,41.28
2019-05-28T06:23:55.150Z,41.69
2019-05-28T06:26:27.774Z,41.52
2019-05-28T06:29:01.468Z,40.61
2019-05-28T06:31:34.091Z,41.78
2019-05-28T06:34:08.729Z,40.60
2019-05-28T06:36:41.016Z,39.98
2019-05-28T06:39:13.724Z,39.26
2019-05-28T06:41:46.213Z,38.94
2019-05-28T06:44:20.689Z,37.47
2019-05-28T06:46:53.357Z,35.87
2019-05-28T06:49:26.864Z,36.61
2019-05-28T06:51:59.405Z,38.41
2019-05-28T06:54:35.845Z,38.04
2019-05-28T06:57:22.293Z,37.28
2019-05-28T06:59:42.551Z,38.78
2019-05-28T07:02:14.876Z,38.71
2019-05-28T07:04:52.728Z,38.26
2019-05-28T07:07:25.236Z,37.19
2019-05-28T07:09:57.550Z,38.03
2019-05-28T07:12:30.109Z,38.02
2019-05-28T07:15:02.514Z,37.71
2019-05-28T07:17:37.074Z,38.62
2019-05-28T07:20:13.816Z,38.93
2019-05-28T07:22:46.197Z,38.51
2019-05-28T07:25:20.382Z,38.41
2019-05-28T07:28:09.790Z,36.90
2019-05-28T07:30:28.097Z,37.35
2019-05-28T07:33:01.954Z,35.67
2019-05-28T07:35:45.917Z,35.48
2019-05-28T07:38:12.994Z,35.22
2019-05-28T07:40:45.290Z,35.12
2019-05-28T07:43:17.639Z,35.64
2019-05-28T07:45:49.722Z,35.98
2019-05-28T07:48:23.522Z,35.84
2019-05-28T07:50:57.058Z,35.95
2019-05-28T07:53:39.612Z,35.95
2019-05-28T07:56:03.937Z,35.66
2019-05-28T07:58:38.586Z,35.85
2019-05-28T08:01:11.336Z,35.54
2019-05-28T08:03:44.621Z,35.60
2019-05-28T08:06:17.104Z,33.89
2019-05-28T08:08:50.795Z,34.62
2019-05-28T08:11:23.699Z,33.36
2019-05-28T08:13:56.896Z,34.59
2019-05-28T08:16:29.264Z,34.74
2019-05-28T08:19:01.664Z,35.40
2019-05-28T08:21:36.371Z,36.84
2019-05-28T08:24:09.530Z,36.78
2019-05-28T08:26:42.950Z,36.69
2019-05-28T08:29:15.075Z,37.67
2019-05-28T08:31:47.729Z,37.70
2019-05-28T08:34:21.916Z,38.85
2019-05-28T08:37:05.877Z,38.54
2019-05-28T08:39:33.694Z,40.01
2019-05-28T08:42:06.850Z,39.00
2019-05-28T08:44:40.191Z,38.61
2019-05-28T08:47:12.579Z,38.95
2019-05-28T08:49:45.016Z,37.99
2019-05-28T08:52:18.553Z,38.46
2019-05-28T08:54:51.998Z,38.46
2019-05-28T08:57:25.829Z,38.33
2019-05-28T08:59:58.107Z,38.42
2019-05-28T09:02:32.508Z,37.53
2019-05-28T09:05:24.695Z,38.49
2019-05-28T09:07:42.644Z,37.78
2019-05-28T09:10:17.033Z,38.17
2019-05-28T09:12:50.386Z,37.08
2019-05-28T09:15:23.236Z,37.34
2019-05-28T09:17:58.000Z,37.27
2019-05-28T09:20:34.284Z,35.53
2019-05-28T09:23:06.768Z,35.41
2019-05-28T09:25:39.665Z,36.50
2019-05-28T09:28:28.417Z,36.50
2019-05-28T09:30:47.815Z,34.72
2019-05-28T09:33:23.780Z,36.79
2019-05-28T09:36:09.026Z,36.63
2019-05-28T09:38:40.701Z,36.31
2019-05-28T09:41:12.938Z,35.66
2019-05-28T09:43:46.066Z,36.36
2019-05-28T09:46:18.749Z,36.69
2019-05-28T09:48:51.561Z,35.27
2019-05-28T09:51:25.781Z,34.92
2019-05-28T09:54:00.707Z,35.29
2019-05-28T09:56:33.412Z,35.33
2019-05-28T09:59:10.273Z,35.21
2019-05-28T10:01:48.260Z,35.21
2019-05-28T10:04:44.055Z,34.71
2019-05-28T10:07:00.285Z,34.69
2019-05-28T10:09:33.298Z,34.42
2019-05-28T10:12:06.796Z,34.34
2019-05-28T10:14:44.160Z,35.29
2019-05-28T10:17:16.043Z,34.49
2019-05-28T10:19:48.549Z,33.15
2019-05-28T10:22:20.795Z,34.32
2019-05-28T10:24:52.925Z,32.87
2019-05-28T10:27:25.363Z,33.52
2019-05-28T10:29:57.593Z,32.69
2019-05-28T10:32:29.805Z,30.78
2019-05-28T10:35:04.185Z,29.53
2019-05-28T10:37:36.053Z,29.40
2019-05-28T10:40:14.897Z,29.75
2019-05-28T10:42:47.127Z,29.45
2019-05-28T10:45:21.939Z,29.80
2019-05-28T10:47:55.607Z,30.20
2019-05-28T10:50:31.539Z,27.91
2019-05-28T10:53:04.076Z,28.25
2019-05-28T10:55:36.391Z,29.73
2019-05-28T10:58:08.638Z,30.51
2019-05-28T11:00:41.869Z,28.84
2019-05-28T11:03:15.944Z,28.82
2019-05-28T11:05:49.234Z,28.06
2019-05-28T11:08:21.839Z,27.84
2019-05-28T11:10:56.202Z,28.52
2019-05-28T11:13:28.480Z,28.48
2019-05-28T11:16:00.957Z,28.91
2019-05-28T11:18:33.327Z,28.08
2019-05-28T11:21:09.560Z,28.06
2019-05-28T11:23:40.871Z,28.00
2019-05-28T11:26:13.346Z,27.93
2019-05-28T11:28:45.547Z,28.42
2019-05-28T11:31:18.904Z,26.91
2019-05-28T11:33:52.106Z,26.58
2019-05-28T11:36:27.403Z,27.53
2019-05-28T11:38:59.596Z,27.65
2019-05-28T11:41:42.043Z,26.88
2019-05-28T11:44:06.871Z,27.21
2019-05-28T11:46:40.725Z,27.96
2019-05-28T11:49:13.312Z,29.23
2019-05-28T11:51:46.022Z,28.02
2019-05-28T11:54:18.768Z,26.92
2019-05-28T11:56:51.179Z,26.33
2019-05-28T11:59:23.344Z,25.69
2019-05-28T12:01:56.590Z,25.13
2019-05-28T12:04:29.711Z,25.03
2019-05-28T12:07:02.150Z,24.41
2019-05-28T12:09:34.456Z,26.29
2019-05-28T12:12:07.657Z,26.99
2019-05-28T12:14:40.165Z,26.43
2019-05-28T12:17:12.914Z,26.34
2019-05-28T12:19:45.709Z,27.39
2019-05-28T12:22:18.168Z,29.94
2019-05-28T12:24:50.487Z,32.01
2019-05-28T12:27:22.831Z,30.75
2019-05-28T12:29:54.964Z,28.52
2019-05-28T12:32:32.955Z,25.81
2019-05-28T12:35:26.387Z,25.81
2019-05-28T12:37:48.886Z,26.15
2019-05-28T12:40:20.695Z,27.34
2019-05-28T12:42:54.823Z,27.29
2019-05-28T12:45:35.614Z,26.41
2019-05-28T12:48:12.570Z,25.85
2019-05-28T12:50:34.830Z,25.08
2019-05-28T12:53:07.518Z,24.62
2019-05-28T12:55:39.724Z,24.47
2019-05-28T12:58:17.097Z,25.01
2019-05-28T13:00:49.517Z,25.24
2019-05-28T13:03:23.600Z,25.25
2019-05-28T13:05:56.034Z,26.28
2019-05-28T13:08:29.262Z,27.80
2019-05-28T13:11:02.918Z,29.38
2019-05-28T13:13:35.402Z,31.02
2019-05-28T13:16:08.457Z,32.45
2019-05-28T13:18:41.811Z,33.45
2019-05-28T13:21:14.778Z,32.67
2019-05-28T13:23:47.013Z,29.38
2019-05-28T13:26:19.511Z,28.62
2019-05-28T13:28:51.968Z,30.62
2019-05-28T13:31:25.405Z,32.76
2019-05-28T13:33:58.986Z,33.86
2019-05-28T13:36:31.316Z,34.25
2019-05-28T13:39:04.105Z,35.15
2019-05-28T13:41:37.807Z,35.43
2019-05-28T13:44:10.283Z,36.44
2019-05-28T13:46:44.840Z,36.91
2019-05-28T13:49:20.923Z,36.45
2019-05-28T13:52:11.060Z,36.04
2019-05-28T13:54:29.394Z,36.41
2019-05-28T13:57:01.740Z,36.05
2019-05-28T13:59:34.929Z,31.16
2019-05-28T14:02:09.617Z,29.21
2019-05-28T14:04:48.551Z,28.03
2019-05-28T14:07:20.892Z,27.66
2019-05-28T14:09:53.647Z,27.58
2019-05-28T14:12:26.011Z,27.14
2019-05-28T14:14:58.748Z,27.84
2019-05-28T14:17:31.128Z,27.84
2019-05-28T14:20:07.880Z,28.54
2019-05-28T14:22:40.863Z,27.79
2019-05-28T14:25:13.861Z,29.74
2019-05-28T14:27:45.969Z,32.71
2019-05-28T14:30:20.493Z,33.92
2019-05-28T14:32:53.300Z,34.18
2019-05-28T14:35:26.490Z,34.34
2019-05-28T14:37:58.914Z,32.33
2019-05-28T14:40:31.527Z,31.31
2019-05-28T14:43:04.157Z,30.50
2019-05-28T14:45:36.363Z,28.97
2019-05-28T14:48:08.685Z,28.12
2019-05-28T14:50:42.415Z,27.01
2019-05-28T14:53:14.661Z,27.67
2019-05-28T14:55:46.871Z,28.11
2019-05-28T14:58:19.077Z,27.75
2019-05-28T15:00:52.255Z,28.82
2019-05-28T15:03:27.478Z,27.45
2019-05-28T15:06:00.914Z,27.93
2019-05-28T15:08:33.190Z,30.24
2019-05-28T15:11:06.016Z,29.94
2019-05-28T15:13:38.379Z,32.55
2019-05-28T15:16:10.956Z,33.20
2019-05-28T15:18:43.482Z,33.97
2019-05-28T15:21:17.974Z,34.34
2019-05-28T15:23:50.303Z,35.11
2019-05-28T15:26:22.981Z,36.33
2019-05-28T15:28:56.446Z,36.95
2019-05-28T15:31:28.759Z,36.96
2019-05-28T15:34:04.118Z,37.07
2019-05-28T15:36:36.365Z,37.38
2019-05-28T15:39:08.727Z,38.55
2019-05-28T15:41:43.049Z,39.01
2019-05-28T15:44:15.451Z,38.85
2019-05-28T15:46:47.743Z,39.44
2019-05-28T15:49:20.063Z,39.55
2019-05-28T15:52:05.179Z,39.33
2019-05-28T15:54:25.422Z,39.32
2019-05-28T15:56:58.570Z,38.76
2019-05-28T15:59:30.830Z,38.78
2019-05-28T16:02:04.440Z,39.29
2019-05-28T16:04:47.755Z,38.56
2019-05-28T16:07:23.422Z,38.41
2019-05-28T16:09:57.082Z,37.96
2019-05-28T16:12:29.025Z,38.72
2019-05-28T16:15:00.950Z,38.43
2019-05-28T16:17:33.100Z,38.47
2019-05-28T16:20:07.163Z,38.70
2019-05-28T16:22:39.438Z,38.52
2019-05-28T16:25:12.118Z,38.91
2019-05-28T16:27:44.407Z,39.11
2019-05-28T16:30:18.277Z,39.46
2019-05-28T16:32:49.890Z,39.81
2019-05-28T16:35:21.810Z,40.16
2019-05-28T16:37:54.055Z,40.21
2019-05-28T16:40:26.573Z,41.08
2019-05-28T16:42:58.988Z,40.80
2019-05-28T16:45:31.179Z,41.36
2019-05-28T16:48:03.516Z,41.92
2019-05-28T16:50:35.677Z,42.14
2019-05-28T16:53:08.232Z,42.81
2019-05-28T16:55:42.118Z,43.43
2019-05-28T16:58:14.529Z,44.27
2019-05-28T17:00:46.857Z,44.91
2019-05-28T17:03:19.225Z,45.37
2019-05-28T17:05:51.484Z,45.84
2019-05-28T17:08:25.763Z,46.26
2019-05-28T17:10:58.041Z,46.69
2019-05-28T17:13:31.325Z,47.21
2019-05-28T17:16:03.375Z,47.92
2019-05-28T17:18:39.448Z,48.87
2019-05-28T17:21:11.928Z,48.08
2019-05-28T17:23:44.668Z,48.24
2019-05-28T17:26:17.053Z,48.76
2019-05-28T17:28:49.785Z,49.18
2019-05-28T17:31:23.879Z,49.43
2019-05-28T17:33:57.241Z,49.96
2019-05-28T17:36:29.447Z,50.33
2019-05-28T17:39:01.695Z,50.70
2019-05-28T17:41:37.900Z,51.09
2019-05-28T17:44:09.642Z,51.40
2019-05-28T17:46:41.810Z,51.64
2019-05-28T17:49:15.110Z,52.13
2019-05-28T17:51:47.892Z,52.45
2019-05-28T17:54:20.738Z,52.67
2019-05-28T17:56:53.002Z,53.07
2019-05-28T17:59:25.884Z,53.23
2019-05-28T18:02:03.423Z,53.39
2019-05-28T18:04:35.957Z,53.96
2019-05-28T18:07:08.397Z,53.44
2019-05-28T18:09:44.475Z,53.66
2019-05-28T18:12:19.327Z,53.92
2019-05-28T18:14:53.444Z,54.10
2019-05-28T18:17:26.460Z,54.43
2019-05-28T18:19:59.446Z,54.59
2019-05-28T18:22:31.789Z,54.97
2019-05-28T18:25:05.634Z,54.97
2019-05-28T18:27:38.080Z,55.44
2019-05-28T18:30:12.133Z,55.67
2019-05-28T18:32:43.641Z,56.15
2019-05-28T18:35:15.821Z,56.28
2019-05-28T18:37:47.987Z,56.43
2019-05-28T18:40:20.563Z,56.81
2019-05-28T18:42:52.867Z,56.96
2019-05-28T18:45:25.326Z,57.38
2019-05-28T18:47:57.785Z,56.96
2019-05-28T18:50:30.064Z,57.22
2019-05-28T18:53:02.670Z,57.27
2019-05-28T18:55:36.476Z,56.99
2019-05-28T18:58:08.856Z,57.03
2019-05-28T19:00:41.555Z,56.79
2019-05-28T19:03:14.308Z,56.37
2019-05-28T19:05:48.016Z,55.43
2019-05-28T19:08:21.558Z,55.57
2019-05-28T19:10:59.890Z,54.78
2019-05-28T19:13:32.354Z,54.15
2019-05-28T19:16:05.725Z,54.01
2019-05-28T19:18:40.044Z,53.00
2019-05-28T19:21:12.391Z,53.12
2019-05-28T19:23:45.104Z,52.00
2019-05-28T19:26:19.052Z,52.24
2019-05-28T19:28:51.432Z,52.31
2019-05-28T19:31:23.707Z,52.67
2019-05-28T19:33:56.608Z,52.21
2019-05-28T19:36:29.457Z,52.42
2019-05-28T19:39:02.711Z,52.11
2019-05-28T19:41:50.418Z,52.39
2019-05-28T19:44:10.598Z,52.03
2019-05-28T19:46:42.852Z,52.13
2019-05-28T19:49:14.996Z,52.35
2019-05-28T19:51:47.210Z,52.43
2019-05-28T19:54:20.084Z,52.32
2019-05-28T19:56:52.873Z,52.70
2019-05-28T19:59:25.113Z,52.51
2019-05-28T20:01:57.395Z,53.03
2019-05-28T20:04:30.187Z,52.81
2019-05-28T20:07:02.484Z,52.77
2019-05-28T20:09:35.037Z,52.75
2019-05-28T20:12:12.797Z,52.15
2019-05-28T20:14:43.078Z,51.99
2019-05-28T20:17:16.770Z,51.86
2019-05-28T20:19:51.352Z,51.95
2019-05-28T20:22:23.304Z,52.11
2019-05-28T20:24:59.123Z,52.27
2019-05-28T20:27:33.432Z,52.37
2019-05-28T20:30:11.483Z,52.16
2019-05-28T20:32:43.715Z,52.33
2019-05-28T20:35:16.135Z,52.57
2019-05-28T20:37:48.328Z,53.09
2019-05-28T20:40:20.952Z,53.39
2019-05-28T20:42:54.347Z,53.58
2019-05-28T20:45:27.828Z,53.50
2019-05-28T20:48:00.511Z,53.67
2019-05-28T20:50:33.021Z,54.18
2019-05-28T20:53:06.618Z,54.09
2019-05-28T20:55:38.986Z,54.71
2019-05-28T20:58:11.278Z,54.77
2019-05-28T21:00:43.754Z,54.92
2019-05-28T21:03:16.297Z,54.91
2019-05-28T21:05:48.666Z,55.42
2019-05-28T21:08:20.953Z,55.59
2019-05-28T21:10:53.210Z,55.59
2019-05-28T21:13:27.970Z,55.80
2019-05-28T21:16:00.146Z,56.06
2019-05-28T21:18:32.363Z,56.30
2019-05-28T21:21:04.689Z,56.37
2019-05-28T21:23:36.950Z,56.31
2019-05-28T21:26:09.313Z,56.91
2019-05-28T21:28:41.478Z,57.54
2019-05-28T21:31:13.839Z,57.58
2019-05-28T21:33:46.138Z,58.04
2019-05-28T21:36:18.688Z,58.12
2019-05-28T21:38:51.186Z,58.28
2019-05-28T21:41:23.426Z,58.38
2019-05-28T21:43:55.917Z,59.16
2019-05-28T21:46:28.493Z,59.76
2019-05-28T21:49:00.926Z,60.07
2019-05-28T21:51:33.042Z,60.54
2019-05-28T21:54:05.258Z,60.44
2019-05-28T21:56:37.572Z,60.96
2019-05-28T21:59:13.514Z,61.40
2019-05-28T22:01:47.030Z,61.78
2019-05-28T22:04:19.314Z,62.32
2019-05-28T22:06:51.481Z,62.56
2019-05-28T22:09:23.867Z,63.10
2019-05-28T22:11:57.700Z,63.56
2019-05-28T22:14:32.040Z,63.78
2019-05-28T22:17:05.490Z,63.79
2019-05-28T22:19:39.078Z,63.85
2019-05-28T22:22:11.553Z,64.08
2019-05-28T22:24:44.214Z,64.22
2019-05-28T22:27:16.572Z,63.84
2019-05-28T22:29:48.976Z,63.95
2019-05-28T22:32:21.310Z,63.57
2019-05-28T22:34:53.506Z,64.31
2019-05-28T22:37:25.930Z,64.01
2019-05-28T22:39:59.340Z,63.90
2019-05-28T22:42:32.756Z,64.32
2019-05-28T22:45:07.517Z,64.39
2019-05-28T22:47:39.750Z,64.71
2019-05-28T22:50:21.876Z,65.37
2019-05-28T22:52:47.263Z,65.95
2019-05-28T22:55:19.841Z,66.46
2019-05-28T22:57:52.373Z,66.44
2019-05-28T23:00:27.390Z,66.71
2019-05-28T23:03:00.834Z,67.03
2019-05-28T23:05:33.475Z,66.31
2019-05-28T23:08:06.209Z,66.56
2019-05-28T23:10:38.537Z,66.57
2019-05-28T23:13:11.243Z,65.96
2019-05-28T23:15:44.714Z,65.68
2019-05-28T23:18:17.086Z,66.34
2019-05-28T23:20:50.278Z,65.76
2019-05-28T23:23:22.608Z,66.21
2019-05-28T23:25:54.842Z,66.15
2019-05-28T23:28:27.123Z,65.79
2019-05-28T23:30:59.668Z,65.16
2019-05-28T23:33:32.076Z,64.77
2019-05-28T23:36:04.732Z,64.83
2019-05-28T23:38:36.823Z,65.29
2019-05-28T23:41:09.451Z,65.54
2019-05-28T23:43:41.793Z,65.97
2019-05-28T23:46:14.422Z,66.36
2019-05-28T23:48:50.275Z,66.93
2019-05-28T23:51:22.387Z,66.66
2019-05-28T23:53:54.475Z,67.00
2019-05-28T23:56:27.017Z,67.21
2019-05-28T23:58:59.565Z,67.37
